YUKO2: Yukon 2NNE(N Canadian R)

Data processed at Fri Jan 05 2018 23:42


All information presented herein is the property of the government of the United States of America and may be revised or deleted at any time without prior notice.
Dissemination of this information without the expressed written consent of the Public Affairs Office, Tulsa District U.S. Army Corps of Engineers is strictly prohibited.
These data are gathered electronically and, as presented, have not undergone any form of quality control. These data are not guaranteed to be valid or correct.
Go to home page.
Go to station list.

Upstream stations:

Downstream station:
Previous Day
Next Day
Current Day
    
SHEF ID:       YUKO2     North Canadian River near Yukon,
STATION TYPE:  

                STAGE  STAGE(2)  RIV-FLOW  WTR-TEMP   CONDUCT  BAT-LOAD
                   ft        ft       cfs         F   umho/cm      volt
              Ccp-Rev   Ccp-Rev   Ccp-Rev   Ccp-Rev   Ccp-Rev   Ccp-Rev
(US/Central)
01/03 00:00      1.59      1.63        58     32.56      1616     12.71
01/03 01:00      1.59      1.63        58     32.49      1625     12.71
01/03 02:00      1.58      1.63        57     32.40      1633     12.71
01/03 03:00      1.57      1.63        56     32.43      1632     12.65
01/03 04:00      1.55      1.63        54     32.00      1653     12.65
01/03 05:00      1.55      1.63        54     32.13      1651     12.65
01/03 06:00      1.54      1.63        53     32.00      1664     12.65
01/03 07:00      1.54      1.63        53     31.98      1663     12.65
01/03 08:00      1.54      1.63        53     31.98      1658     12.65
01/03 09:00      1.52      1.65        52     32.13      1676     12.95
01/03 10:00      1.47      1.64        47     33.21      1669     14.24
01/03 11:00      1.49      1.64        49     34.47      1649     14.88
01/03 12:00      1.52      1.63        52     35.29      1649     14.76
01/03 13:00      1.55      1.62        54     35.87      1636     14.71
01/03 14:00      1.56      1.63        55     36.05      1623     14.71
01/03 15:00      1.57      1.62        56     35.76      1615     14.65
01/03 16:00      1.59      1.60        58     35.15      1597     14.71
01/03 17:00      1.61      1.52        60     33.93      1606     14.47
01/03 18:00      1.65      1.12        63     32.99      1609     13.77
01/03 19:00      1.66      0.86        64     32.74      1617     13.24
01/03 20:00      1.65      0.70        63     32.49      1633     13.00
01/03 21:00      1.64      0.63        62     32.70      1622     12.95
01/03 22:00      1.63      0.58        61     32.61      1621     12.89
01/03 23:00      1.63      0.53        61     32.74      1611     12.89